createdAt,value
2019-04-05T00:01:28.176Z,30.90
2019-04-05T00:04:21.314Z,30.90
2019-04-05T00:07:14.323Z,30.80
2019-04-05T00:10:07.095Z,30.80
2019-04-05T00:12:59.537Z,30.80
2019-04-05T00:15:52.619Z,30.90
2019-04-05T00:18:45.250Z,30.90
2019-04-05T00:21:38.554Z,30.90
2019-04-05T00:24:31.297Z,30.80
2019-04-05T00:27:24.073Z,30.90
2019-04-05T00:30:16.764Z,30.90
2019-04-05T00:33:09.554Z,30.80
2019-04-05T00:36:02.344Z,30.80
2019-04-05T00:38:56.043Z,30.80
2019-04-05T00:41:48.725Z,30.80
2019-04-05T00:44:42.192Z,30.80
2019-04-05T00:47:35.033Z,30.80
2019-04-05T00:50:28.064Z,30.80
2019-04-05T00:53:20.787Z,30.80
2019-04-05T00:56:13.538Z,30.80
2019-04-05T00:59:06.501Z,30.80
2019-04-05T01:01:59.352Z,30.80
2019-04-05T01:04:51.980Z,30.80
2019-04-05T01:07:44.737Z,30.80
2019-04-05T01:10:37.527Z,30.80
2019-04-05T01:13:32.285Z,30.80
2019-04-05T01:16:25.133Z,30.80
2019-04-05T01:19:18.963Z,30.80
2019-04-05T01:22:12.543Z,30.80
2019-04-05T01:25:05.607Z,30.80
2019-04-05T01:27:58.737Z,30.80
2019-04-05T01:30:53.169Z,30.80
2019-04-05T01:33:46.271Z,30.80
2019-04-05T01:36:39.383Z,30.80
2019-04-05T01:39:32.356Z,30.70
2019-04-05T01:42:24.903Z,30.80
2019-04-05T01:45:18.152Z,30.80
2019-04-05T01:48:10.621Z,30.80
2019-04-05T01:51:03.488Z,30.80
2019-04-05T01:53:56.208Z,30.80
2019-04-05T01:56:49.406Z,30.80
2019-04-05T01:59:42.983Z,30.80
2019-04-05T02:02:36.223Z,30.80
2019-04-05T02:05:31.385Z,30.80
2019-04-05T02:08:24.691Z,30.80
2019-04-05T02:11:18.015Z,30.80
2019-04-05T02:14:10.821Z,30.80
2019-04-05T02:17:04.250Z,30.80
2019-04-05T02:19:57.225Z,30.80
2019-04-05T02:22:51.090Z,30.80
2019-04-05T02:25:44.960Z,30.80
2019-04-05T02:28:38.492Z,30.80
2019-04-05T02:31:31.163Z,30.80
2019-04-05T02:34:23.755Z,30.80
2019-04-05T02:37:16.277Z,30.80
2019-04-05T02:40:11.419Z,30.80
2019-04-05T02:43:06.925Z,30.80
2019-04-05T02:46:03.369Z,30.80
2019-04-05T02:48:56.160Z,30.80
2019-04-05T02:51:50.365Z,30.80
2019-04-05T02:54:42.943Z,30.80
2019-04-05T02:57:36.806Z,30.80
2019-04-05T03:00:30.238Z,30.90
2019-04-05T03:03:23.161Z,30.90
2019-04-05T03:06:15.878Z,30.90
2019-04-05T03:09:09.002Z,30.80
2019-04-05T03:12:03.723Z,30.80
2019-04-05T03:14:56.291Z,30.90
2019-04-05T03:17:49.009Z,30.90
2019-04-05T03:20:42.366Z,30.90
2019-04-05T03:23:36.752Z,30.90
2019-04-05T03:26:30.776Z,30.90
2019-04-05T03:29:24.170Z,30.90
2019-04-05T03:32:17.606Z,30.90
2019-04-05T03:35:10.817Z,30.90
2019-04-05T03:38:05.535Z,30.90
2019-04-05T03:40:58.966Z,30.90
2019-04-05T03:43:52.845Z,30.90
2019-04-05T03:46:56.536Z,30.90
2019-04-05T03:49:42.334Z,30.90
2019-04-05T03:52:35.048Z,30.90
2019-04-05T03:55:28.135Z,30.90
2019-04-05T03:58:21.850Z,30.90
2019-04-05T04:01:14.366Z,30.90
2019-04-05T04:04:07.732Z,30.90
2019-04-05T04:07:00.781Z,30.90
2019-04-05T04:09:55.988Z,30.90
2019-04-05T04:12:49.790Z,30.90
2019-04-05T04:15:43.841Z,30.90
2019-04-05T04:18:36.951Z,30.90
2019-04-05T04:21:33.169Z,30.90
2019-04-05T04:24:27.607Z,30.90
2019-04-05T04:27:20.634Z,30.90
2019-04-05T04:30:13.844Z,30.90
2019-04-05T04:33:06.308Z,30.90
2019-04-05T04:36:00.344Z,30.90
2019-04-05T04:38:55.026Z,30.90
2019-04-05T04:41:50.474Z,30.90
2019-04-05T04:44:44.142Z,30.90
2019-04-05T04:47:37.013Z,30.90
2019-04-05T04:50:32.298Z,30.90
2019-04-05T04:53:25.676Z,30.90
2019-04-05T04:56:20.146Z,30.90
2019-04-05T04:59:14.186Z,30.90
2019-04-05T05:02:08.449Z,31.00
2019-04-05T05:05:02.367Z,31.00
2019-04-05T05:07:55.738Z,31.00
2019-04-05T05:10:49.351Z,31.00
2019-04-05T05:13:42.811Z,31.00
2019-04-05T05:16:39.961Z,31.00
2019-04-05T05:19:34.166Z,31.00
2019-04-05T05:22:27.517Z,31.00
2019-04-05T05:25:21.771Z,31.00
2019-04-05T05:34:02.626Z,31.10
2019-04-05T05:37:01.204Z,31.10
2019-04-05T05:40:04.442Z,31.00
2019-04-05T05:43:03.301Z,31.00
2019-04-05T05:45:58.443Z,30.90
2019-04-05T05:48:51.628Z,30.90
2019-04-05T05:51:44.885Z,30.90
2019-04-05T05:54:38.006Z,30.60
2019-04-05T05:57:32.102Z,30.60
2019-04-05T06:03:18.813Z,30.10
2019-04-05T06:06:16.309Z,30.10
2019-04-05T06:12:01.540Z,29.90
2019-04-05T06:14:54.715Z,29.90
2019-04-05T06:17:48.177Z,29.80
2019-04-05T06:20:42.750Z,29.70
2019-04-05T06:26:29.219Z,29.70
2019-04-05T06:32:14.516Z,29.70
2019-04-05T06:35:09.099Z,29.70
2019-04-05T06:40:53.182Z,27.10
2019-04-05T06:43:47.273Z,29.70
2019-04-05T06:55:13.591Z,29.50
2019-04-05T06:58:10.343Z,29.60
2019-04-05T07:01:13.219Z,29.60
2019-04-05T07:09:49.164Z,29.50
2019-04-05T07:15:34.184Z,29.50
2019-04-05T07:18:35.424Z,29.50
2019-04-05T07:27:07.307Z,29.60
2019-04-05T07:30:05.832Z,25.20
2019-04-05T07:38:54.175Z,29.60
2019-04-05T07:47:31.858Z,29.60
2019-04-05T07:50:24.319Z,29.60
2019-04-05T07:53:19.029Z,29.60
2019-04-05T07:56:12.704Z,29.60
2019-04-05T08:04:47.014Z,29.60
2019-04-05T08:10:30.907Z,29.60
2019-04-05T08:13:24.599Z,29.60
2019-04-05T08:16:18.091Z,29.40
2019-04-05T08:24:53.745Z,29.50
2019-04-05T08:27:46.370Z,29.50
2019-04-05T08:30:39.301Z,29.60
2019-04-05T08:33:32.301Z,29.50
2019-04-05T08:36:25.361Z,29.50
2019-04-05T08:42:11.013Z,29.50
2019-04-05T08:45:04.508Z,29.40
2019-04-05T08:50:48.637Z,29.50
2019-04-05T08:53:42.376Z,29.30
2019-04-05T08:56:35.377Z,29.30
2019-04-05T08:59:28.875Z,29.40
2019-04-05T09:02:21.582Z,29.30
2019-04-05T09:13:49.644Z,29.20
2019-04-05T09:16:42.792Z,29.20
2019-04-05T09:22:27.385Z,29.20
2019-04-05T09:28:13.478Z,29.30
2019-04-05T09:36:50.020Z,29.20
2019-04-05T09:42:34.906Z,29.10
2019-04-05T09:51:15.104Z,28.90
2019-04-05T09:54:08.207Z,29.10
2019-04-05T09:57:01.795Z,29.10
2019-04-05T10:08:35.818Z,29.00
2019-04-05T10:11:30.217Z,29.10
2019-04-05T10:14:25.376Z,29.20
2019-04-05T10:17:21.978Z,29.20
2019-04-05T10:20:19.031Z,31.70
2019-04-05T10:23:12.520Z,29.00
2019-04-05T10:29:00.010Z,29.00
2019-04-05T10:31:53.604Z,29.00
2019-04-05T10:34:50.820Z,29.00
2019-04-05T10:40:41.178Z,29.10
2019-04-05T10:43:36.480Z,29.20
2019-04-05T10:46:30.122Z,29.20
2019-04-05T10:49:23.122Z,29.20
2019-04-05T10:52:17.469Z,29.20
2019-04-05T10:55:10.751Z,29.30
2019-04-05T10:58:03.721Z,29.30
2019-04-05T11:00:56.569Z,29.20
2019-04-05T11:06:44.516Z,29.20
2019-04-05T11:09:38.617Z,29.20
2019-04-05T11:12:31.833Z,29.10
2019-04-05T11:15:28.796Z,29.20
2019-04-05T11:18:28.296Z,29.10
2019-04-05T11:21:27.200Z,29.10
2019-04-05T11:24:24.563Z,29.00
2019-04-05T11:27:20.098Z,29.20
2019-04-05T11:30:18.746Z,29.20
2019-04-05T11:33:13.624Z,29.10
2019-04-05T11:36:13.838Z,29.10
2019-04-05T11:39:12.030Z,29.20
2019-04-05T11:42:06.925Z,29.00
2019-04-05T11:45:04.130Z,28.90
2019-04-05T11:47:59.703Z,29.10
2019-04-05T11:50:55.387Z,29.10
2019-04-05T11:53:48.217Z,30.70
2019-04-05T11:56:44.414Z,29.00
2019-04-05T11:59:49.707Z,29.10
2019-04-05T12:03:09.658Z,29.10
2019-04-05T12:06:24.563Z,29.10
2019-04-05T12:09:43.780Z,29.20
2019-04-05T12:12:49.708Z,29.10
2019-04-05T12:16:10.252Z,29.10
2019-04-05T12:19:32.958Z,29.10
2019-04-05T12:22:35.619Z,29.10
2019-04-05T12:26:03.820Z,29.10
2019-04-05T12:29:16.822Z,29.10
2019-04-05T12:32:17.912Z,29.10
2019-04-05T12:35:16.029Z,29.10
2019-04-05T12:38:34.249Z,29.20
2019-04-05T12:41:27.221Z,29.20
2019-04-05T12:44:21.684Z,29.10
2019-04-05T12:47:20.832Z,29.00
2019-04-05T12:50:14.624Z,29.00
2019-04-05T12:53:09.870Z,29.10
2019-04-05T12:56:02.809Z,29.10
2019-04-05T12:58:55.882Z,29.10
2019-04-05T13:01:53.240Z,29.20
2019-04-05T13:04:50.160Z,29.20
2019-04-05T13:07:44.109Z,29.10
2019-04-05T13:10:37.338Z,29.20
2019-04-05T13:13:32.146Z,29.20
2019-04-05T13:16:25.779Z,29.00
2019-04-05T13:19:19.363Z,29.80
2019-04-05T13:22:12.721Z,29.20
2019-04-05T13:25:06.579Z,29.10
2019-04-05T13:28:12.473Z,28.90
2019-04-05T13:30:55.515Z,29.10
2019-04-05T13:33:54.338Z,29.10
2019-04-05T13:36:46.116Z,29.00
2019-04-05T13:39:39.321Z,29.10
2019-04-05T13:42:35.434Z,29.10
2019-04-05T13:45:29.450Z,29.00
2019-04-05T13:48:23.990Z,29.10
2019-04-05T13:51:27.339Z,29.10
2019-04-05T13:54:10.975Z,29.00
2019-04-05T13:57:04.158Z,29.10
2019-04-05T13:59:56.813Z,29.10
2019-04-05T14:02:50.731Z,30.10
2019-04-05T14:05:46.170Z,29.10
2019-04-05T14:08:41.139Z,29.20
2019-04-05T14:11:32.770Z,29.10
2019-04-05T14:14:28.129Z,29.10
2019-04-05T14:17:19.966Z,29.20
2019-04-05T14:20:12.721Z,29.10
2019-04-05T14:23:05.009Z,28.90
2019-04-05T14:25:59.745Z,29.00
2019-04-05T14:28:53.029Z,29.10
2019-04-05T14:31:44.763Z,28.90
2019-04-05T14:34:37.446Z,28.90
2019-04-05T14:37:29.851Z,29.00
2019-04-05T14:40:22.696Z,29.00
2019-04-05T14:43:15.906Z,29.00
2019-04-05T14:46:11.748Z,29.10
2019-04-05T14:49:04.246Z,29.10
2019-04-05T14:51:56.644Z,29.00
2019-04-05T14:54:48.909Z,29.00
2019-04-05T14:57:40.937Z,29.10
2019-04-05T15:00:33.435Z,29.10
2019-04-05T15:03:26.585Z,29.00
2019-04-05T15:06:18.780Z,29.20
2019-04-05T15:09:11.244Z,29.30
2019-04-05T15:12:05.328Z,29.50
2019-04-05T15:14:58.025Z,29.60
2019-04-05T15:17:50.353Z,29.60
2019-04-05T15:20:42.251Z,29.70
2019-04-05T15:23:34.610Z,29.70
2019-04-05T15:26:26.786Z,29.80
2019-04-05T15:29:20.006Z,29.80
2019-04-05T15:32:12.632Z,29.80
2019-04-05T15:35:04.863Z,29.80
2019-04-05T15:37:57.305Z,29.80
2019-04-05T15:40:49.791Z,29.90
2019-04-05T15:43:42.358Z,29.90
2019-04-05T15:46:34.632Z,29.90
2019-04-05T15:49:26.956Z,29.90
2019-04-05T15:52:19.546Z,30.00
2019-04-05T15:55:11.941Z,30.00
2019-04-05T15:58:04.567Z,30.00
2019-04-05T16:00:56.916Z,30.00
2019-04-05T16:03:48.982Z,30.00
2019-04-05T16:06:41.173Z,30.00
2019-04-05T16:09:33.433Z,30.00
2019-04-05T16:12:25.375Z,30.10
2019-04-05T16:15:18.746Z,30.10
2019-04-05T16:18:11.141Z,30.10
2019-04-05T16:21:04.106Z,30.10
2019-04-05T16:23:57.328Z,30.10
2019-04-05T16:26:49.677Z,30.10
2019-04-05T16:29:42.208Z,30.10
2019-04-05T16:32:34.625Z,30.10
2019-04-05T16:35:26.545Z,30.10
2019-04-05T16:38:18.906Z,30.10
2019-04-05T16:41:11.449Z,30.10
2019-04-05T16:44:03.797Z,30.10
2019-04-05T16:46:55.895Z,30.20
2019-04-05T16:49:48.105Z,30.20
2019-04-05T16:52:44.993Z,30.20
2019-04-05T16:55:33.823Z,30.20
2019-04-05T16:58:26.528Z,30.20
2019-04-05T17:01:26.936Z,30.20
2019-04-05T17:04:14.070Z,27.30
2019-04-05T17:07:06.470Z,30.20
2019-04-05T17:09:58.686Z,30.20
2019-04-05T17:12:50.858Z,30.20
2019-04-05T17:15:43.450Z,30.30
2019-04-05T17:18:35.801Z,30.30
2019-04-05T17:21:28.318Z,30.30
2019-04-05T17:24:20.504Z,30.30
2019-04-05T17:27:12.684Z,30.30
2019-04-05T17:30:05.313Z,30.30
2019-04-05T17:32:57.542Z,30.30
2019-04-05T17:35:49.937Z,30.30
2019-04-05T17:38:42.415Z,30.30
2019-04-05T17:41:34.583Z,30.30
2019-04-05T17:44:27.063Z,30.40
2019-04-05T17:47:19.550Z,30.30
2019-04-05T17:50:12.082Z,30.30
2019-04-05T17:53:12.574Z,30.30
2019-04-05T17:55:59.127Z,30.30
2019-04-05T17:58:51.964Z,30.40
2019-04-05T18:01:44.054Z,30.30
2019-04-05T18:04:36.334Z,30.40
2019-04-05T18:07:28.657Z,30.30
2019-04-05T18:10:20.925Z,30.40
2019-04-05T18:13:13.303Z,30.40
2019-04-05T18:16:05.560Z,30.40
2019-04-05T18:18:57.677Z,30.40
2019-04-05T18:21:50.055Z,30.40
2019-04-05T18:24:42.506Z,30.40
2019-04-05T18:27:34.773Z,30.40
2019-04-05T18:30:27.124Z,30.40
2019-04-05T18:33:19.327Z,30.40
2019-04-05T18:36:11.340Z,30.40
2019-04-05T18:39:03.714Z,30.40
2019-04-05T18:41:56.790Z,30.40
2019-04-05T18:44:48.993Z,30.40
2019-04-05T18:47:42.189Z,30.40
2019-04-05T18:50:34.451Z,30.40
2019-04-05T18:53:37.142Z,30.40
2019-04-05T18:56:20.040Z,30.40
2019-04-05T18:59:12.206Z,30.40
2019-04-05T19:02:04.410Z,30.50
2019-04-05T19:04:56.577Z,30.40
2019-04-05T19:07:48.773Z,30.40
2019-04-05T19:10:41.019Z,30.40
2019-04-05T19:13:33.230Z,30.40
2019-04-05T19:16:25.319Z,30.50
2019-04-05T19:19:17.931Z,30.50
2019-04-05T19:22:10.216Z,30.50
2019-04-05T19:25:04.809Z,30.50
2019-04-05T19:27:57.013Z,30.50
2019-04-05T19:51:02.201Z,30.50
2019-04-05T19:54:01.052Z,30.50
2019-04-05T19:56:47.874Z,30.50
2019-04-05T19:59:40.139Z,30.50
2019-04-05T20:02:32.461Z,30.50
2019-04-05T20:05:24.770Z,30.50
2019-04-05T20:08:17.076Z,30.50
2019-04-05T20:11:09.599Z,30.50
2019-04-05T20:14:01.938Z,30.50
2019-04-05T20:16:54.095Z,30.50
2019-04-05T20:19:46.415Z,30.50
2019-04-05T20:22:38.702Z,30.50
2019-04-05T20:25:31.936Z,30.50
2019-04-05T20:28:23.950Z,30.50
2019-04-05T20:31:15.953Z,30.50
2019-04-05T20:34:08.121Z,30.50
2019-04-05T20:37:00.235Z,30.50
2019-04-05T20:39:53.240Z,30.60
2019-04-05T20:42:45.425Z,30.60
2019-04-05T20:45:37.704Z,30.60
2019-04-05T20:48:29.961Z,30.60
2019-04-05T20:51:22.227Z,30.60
2019-04-05T20:54:23.943Z,30.60
2019-04-05T20:57:07.878Z,30.60
2019-04-05T21:00:00.201Z,30.60
2019-04-05T21:02:52.687Z,30.60
2019-04-05T21:05:45.062Z,30.60
2019-04-05T21:08:37.559Z,30.60
2019-04-05T21:11:29.989Z,30.60
2019-04-05T21:14:22.426Z,30.60
2019-04-05T21:17:14.701Z,30.60
2019-04-05T21:20:07.165Z,30.60
2019-04-05T21:22:59.200Z,30.60
2019-04-05T21:25:51.924Z,30.60
2019-04-05T21:28:45.330Z,30.60
2019-04-05T21:31:37.746Z,30.60
2019-04-05T21:34:30.067Z,30.60
2019-04-05T21:37:22.368Z,30.60
2019-04-05T21:40:14.711Z,30.60
2019-04-05T21:43:06.856Z,30.60
2019-04-05T21:45:59.197Z,30.60
2019-04-05T21:48:52.881Z,30.60
2019-04-05T21:51:45.153Z,30.60
2019-04-05T21:54:47.135Z,30.60
2019-04-05T21:57:31.069Z,30.60
2019-04-05T22:00:27.978Z,30.60
2019-04-05T22:03:21.134Z,30.60
2019-04-05T22:06:13.571Z,30.60
2019-04-05T22:09:08.121Z,30.60
2019-04-05T22:12:00.210Z,30.60
2019-04-05T22:14:52.930Z,30.60
2019-04-05T22:17:45.240Z,30.60
2019-04-05T22:20:38.332Z,30.60
2019-04-05T22:23:30.863Z,30.60
2019-04-05T22:26:23.283Z,30.60
2019-04-05T22:29:15.683Z,30.60
2019-04-05T22:32:08.349Z,30.60
2019-04-05T22:35:02.015Z,30.60
2019-04-05T22:37:54.334Z,30.60
2019-04-05T22:40:47.691Z,30.60
2019-04-05T22:43:39.942Z,30.60
2019-04-05T22:46:32.517Z,30.70
2019-04-05T22:49:24.774Z,30.60
2019-04-05T22:52:17.087Z,30.60
2019-04-05T22:55:11.388Z,30.60
2019-04-05T22:58:03.300Z,30.60
2019-04-05T23:00:55.674Z,30.60
2019-04-05T23:03:48.107Z,30.60
2019-04-05T23:06:40.490Z,30.60
2019-04-05T23:09:32.920Z,30.60
2019-04-05T23:12:25.289Z,30.60
2019-04-05T23:15:17.576Z,30.60
2019-04-05T23:18:09.820Z,30.60
2019-04-05T23:21:02.113Z,30.60
2019-04-05T23:23:54.598Z,30.60
2019-04-05T23:26:46.730Z,30.60
2019-04-05T23:29:39.039Z,30.60
2019-04-05T23:32:31.274Z,30.60
2019-04-05T23:35:23.509Z,30.60
2019-04-05T23:38:15.879Z,30.60
2019-04-05T23:41:08.266Z,30.60
2019-04-05T23:44:00.525Z,30.60
2019-04-05T23:46:52.857Z,30.60
2019-04-05T23:49:45.103Z,30.60
2019-04-05T23:52:37.434Z,30.60
2019-04-05T23:55:33.625Z,30.60
2019-04-05T23:58:23.317Z,30.60
